Fairdale, ND (58229)

11:14 AM CDT on August 29, 2014 (GMT -0500)
Langdon | Change Station
CLOSE
Current Station
Airport
Location: Langdon,
Elevation: 1608 ft
Nearby Weather Stations

Elev 1608 ft 48.75 °N, 98.39 °W | Updated 19 minutes ago

Overcast
Overcast
68 °F
Feels Like 68 °F
N
4
Wind Variable Wind from West

Today
High -- | Low -- °F
--% Chance of Precip.
Yesterday
High -- | Low -- °F
Precip. -- in
6:46 AM 8:20 PM
Waxing Crescent, 15% visible
Pressure 29.78 in
Visibility 10.0 miles
Clouds Few 700 ft
Mostly Cloudy 1800 ft
Overcast 2900 ft
Dew Point 64 °F
Humidity 88%
Rainfall 0.00 in
Snow Depth Not available.
UV 2 out of 12
Pollen 9.40 out of 12
Air Quality Not available.
Flu Activity Not available.
METAR KD55 291555Z AUTO 27003KT 10SM FEW007 BKN018 OVC029 20/18 A2978 RMK AO2

More Conditions Fewer Conditions

Pressure 29.78 in
Visibility 10.0 miles
Clouds Few 700 ft
Mostly Cloudy 1800 ft
Overcast 2900 ft
Dew Point 64 °F
Humidity 88%
Rainfall 0.00 in
Snow Depth Not available.
UV 2 out of 12
Pollen 9.40 out of 12
Air Quality Not available.
Flu Activity Not available.
METAR KD55 291555Z AUTO 27003KT 10SM FEW007 BKN018 OVC029 20/18 A2978 RMK AO2

More Conditions Fewer Conditions

10-Day Weather Forecast

Almanac

Astronomy

Aug. 29, 2014 Rise Set
Actual Time 6:46 AM CDT 8:20 PM CDT
Civil Twilight 6:13 AM CDT 8:53 PM CDT
Nautical Twilight 5:33 AM CDT 9:32 PM CDT
Astronomical Twilight 4:49 AM CDT 10:16 PM CDT
Moon 10:58 AM CDT 9:55 PM CDT
Length of Visible Light 14h 39m
Length of Day
13h 34m
Tomorrow will be 3m 24s shorter.
Waxing Crescent, 15% of the Moon is Illuminated
Today
Waxing Crescent
Sep 2
First Quarter
Sep 8
Full
Sep 15
Last Quarter
Sep 24
New

Today's Extremes

State Highs State Lows

Community

WunderPhotos

Upload Photos

1,748,275 photos uploaded!

Nearby

Snow Depth

Station Depth Elevation
No new snow has been reported.

Earthquake Activity

City Distance Mag. Time & Date
No recent earthquake activity has been reported nearby.
Minimum magnitude displayed is 2.5.

Coastal Water Temperatures

Place Temperature
No Stations Reporting

Nearby Weather Stations